Time;durP1;ratioP1;P1;durP2;ratioP2;P2;SDS_P1;SDS_P2;PMS_P1;PMS_P2;Temp;Humidity;BMP_temperature;BMP_pressure;BME280_temperature;BME280_humidity;BME280_pressure;Samples;Min_cycle;Max_cycle;Signal;HPM_P1;HPM_P2
2023/06/18 00:00:15;;;;;;;33.53;25.33;;;18.50;99.90;;;;;;4991163;28;20051;-85
2023/06/18 00:02:41;;;;;;;31.17;23.42;;;18.30;99.90;;;;;;4995833;28;21644;-85
2023/06/18 00:05:07;;;;;;;32.00;23.42;;;18.20;99.90;;;;;;4996271;28;20034;-85
2023/06/18 00:07:33;;;;;;;34.55;25.63;;;18.10;99.90;;;;;;4978079;28;20042;-85
2023/06/18 00:10:02;;;;;;;33.50;24.05;;;18.10;99.90;;;;;;5013892;28;20045;-85
2023/06/18 00:12:31;;;;;;;31.85;23.02;;;18.10;99.90;;;;;;4986375;28;20042;-85
2023/06/18 00:14:57;;;;;;;25.38;18.80;;;18.10;99.90;;;;;;4987497;28;20040;-85
2023/06/18 00:17:22;;;;;;;29.67;21.98;;;18.10;99.90;;;;;;5001990;28;20058;-85
2023/06/18 00:19:48;;;;;;;26.92;19.77;;;18.10;99.90;;;;;;5003391;28;20421;-85
2023/06/18 00:22:15;;;;;;;31.00;22.63;;;18.10;99.90;;;;;;5000505;28;20497;-85
2023/06/18 00:24:40;;;;;;;34.58;25.08;;;18.10;99.90;;;;;;5006516;28;20093;-85
2023/06/18 00:27:06;;;;;;;26.20;20.48;;;18.10;99.90;;;;;;4986825;28;20084;-85
2023/06/18 00:29:32;;;;;;;25.80;20.42;;;18.00;99.90;;;;;;4981679;28;20116;-84
2023/06/18 00:31:58;;;;;;;31.77;24.15;;;18.10;99.90;;;;;;4967497;28;20053;-85
2023/06/18 00:34:32;;;;;;;29.42;23.02;;;18.00;99.90;;;;;;4980087;28;20041;-85
2023/06/18 00:37:03;;;;;;;;;;;18.00;99.90;;;;;;4980073;28;20478;-85
2023/06/18 00:39:28;;;;;;;30.13;22.73;;;18.00;99.90;;;;;;4991504;28;19925;-85
2023/06/18 00:41:54;;;;;;;28.65;23.30;;;17.90;99.90;;;;;;4998313;28;20043;-84
2023/06/18 00:44:21;;;;;;;35.60;25.60;;;17.80;99.90;;;;;;5005675;28;20548;-85
2023/06/18 00:46:48;;;;;;;26.35;20.75;;;17.80;99.90;;;;;;5006911;28;20509;-85
2023/06/18 00:49:15;;;;;;;28.67;21.80;;;17.80;99.90;;;;;;4972300;28;20046;-84
2023/06/18 00:51:44;;;;;;;30.27;22.65;;;17.80;99.90;;;;;;5002702;28;20034;-84
2023/06/18 00:54:14;;;;;;;31.70;22.30;;;17.80;99.90;;;;;;4969050;28;20034;-84
2023/06/18 00:56:50;;;;;;;37.55;26.73;;;17.70;99.90;;;;;;4978396;28;20092;-84
2023/06/18 00:59:27;;;;;;;30.98;24.25;;;17.70;99.90;;;;;;4981791;28;20058;-85
2023/06/18 01:01:54;;;;;;;30.10;23.23;;;17.70;99.90;;;;;;4976700;28;20034;-85
2023/06/18 01:04:22;;;;;;;32.17;24.75;;;17.70;99.90;;;;;;4966151;28;20038;-85
2023/06/18 01:06:52;;;;;;;26.70;21.00;;;17.60;99.90;;;;;;4991861;28;20038;-85
2023/06/18 01:09:21;;;;;;;33.63;23.15;;;17.60;99.90;;;;;;4998832;28;20042;-85
2023/06/18 01:11:51;;;;;;;37.25;26.02;;;17.50;99.90;;;;;;4989333;28;20060;-85
2023/06/18 01:14:19;;;;;;;35.65;25.80;;;17.50;99.90;;;;;;4986193;28;20042;-85
2023/06/18 01:16:45;;;;;;;38.20;27.55;;;17.50;99.90;;;;;;4984425;28;20057;-85
2023/06/18 01:19:27;;;;;;;32.08;24.30;;;17.50;99.90;;;;;;4994720;28;20045;-84
2023/06/18 01:22:01;;;;;;;27.63;20.90;;;17.40;99.90;;;;;;4983416;28;20038;-85
2023/06/18 01:24:32;;;;;;;30.25;22.52;;;17.40;99.90;;;;;;4977375;28;20493;-85
2023/06/18 01:26:58;;;;;;;36.50;26.33;;;17.40;99.90;;;;;;4963126;28;20133;-85
2023/06/18 01:29:26;;;;;;;31.52;23.08;;;17.30;99.90;;;;;;4981975;28;20049;-85
2023/06/18 01:31:56;;;;;;;35.20;25.83;;;17.40;99.90;;;;;;5008169;28;20062;-85
2023/06/18 01:34:24;;;;;;;37.55;26.02;;;17.30;99.90;;;;;;5003313;28;20402;-84
2023/06/18 01:37:16;;;;;;;39.92;27.23;;;17.20;99.90;;;;;;4985367;28;20097;-85
2023/06/18 01:40:23;;;;;;;35.22;25.27;;;17.20;99.90;;;;;;4996659;28;20050;-85
2023/06/18 01:43:21;;;;;;;32.10;23.60;;;17.10;99.90;;;;;;4981604;28;20100;-85
2023/06/18 01:45:57;;;;;;;32.13;23.38;;;17.10;99.90;;;;;;4902580;29;20559;-84
2023/06/18 01:48:27;;;;;;;32.22;21.88;;;17.10;99.90;;;;;;4888167;29;20123;-85
2023/06/18 01:50:56;;;;;;;32.00;22.42;;;17.00;99.90;;;;;;4897031;29;20453;-85
2023/06/18 01:53:25;;;;;;;30.33;23.55;;;17.00;99.90;;;;;;4904027;29;21067;-85
2023/06/18 01:55:56;;;;;;;40.25;28.00;;;17.00;99.90;;;;;;4879736;29;20036;-85
2023/06/18 01:58:23;;;;;;;30.38;22.63;;;17.00;99.90;;;;;;4918801;29;20060;-85
2023/06/18 02:00:51;;;;;;;34.40;24.73;;;17.00;99.90;;;;;;4903626;29;20048;-84
2023/06/18 02:03:17;;;;;;;31.70;23.38;;;17.00;99.90;;;;;;4893849;29;20064;-85
2023/06/18 02:05:46;;;;;;;37.45;27.67;;;16.90;99.90;;;;;;4899551;29;20041;-85
2023/06/18 02:08:12;;;;;;;36.28;25.10;;;16.90;99.90;;;;;;4896248;29;20083;-85
2023/06/18 02:10:37;;;;;;;36.00;25.42;;;16.80;99.90;;;;;;4896541;29;20508;-84
2023/06/18 02:13:03;;;;;;;38.40;29.08;;;16.80;99.90;;;;;;4901380;29;20115;-84
2023/06/18 02:15:30;;;;;;;40.78;29.17;;;16.70;99.90;;;;;;4893079;29;20590;-85
2023/06/18 02:17:56;;;;;;;37.35;27.95;;;16.70;99.90;;;;;;4906123;29;20044;-84
2023/06/18 02:20:22;;;;;;;40.60;28.48;;;16.70;99.90;;;;;;4905191;29;20051;-85
2023/06/18 02:22:49;;;;;;;36.60;27.30;;;16.70;99.90;;;;;;4959465;28;20062;-84
2023/06/18 02:25:18;;;;;;;34.85;25.13;;;16.60;99.90;;;;;;4973502;28;20050;-84
2023/06/18 02:28:01;;;;;;;33.92;24.35;;;16.60;99.90;;;;;;4985445;28;20045;-85
2023/06/18 02:30:31;;;;;;;36.63;27.27;;;16.60;99.90;;;;;;4977013;28;20486;-85
2023/06/18 02:33:02;;;;;;;40.95;28.40;;;16.60;99.90;;;;;;4982381;28;20042;-85
2023/06/18 02:35:29;;;;;;;38.45;27.98;;;16.70;99.90;;;;;;4978399;28;20039;-85
2023/06/18 02:37:56;;;;;;;35.50;25.50;;;16.60;99.90;;;;;;5001295;28;20120;-85
2023/06/18 02:40:21;;;;;;;37.13;27.63;;;16.60;99.90;;;;;;4993017;28;20042;-85
2023/06/18 02:42:48;;;;;;;29.17;20.60;;;16.60;99.90;;;;;;4971235;28;20041;-85
2023/06/18 02:45:18;;;;;;;37.20;27.13;;;16.60;99.90;;;;;;4981992;28;20119;-85
2023/06/18 02:47:48;;;;;;;40.70;27.95;;;16.60;99.90;;;;;;4994018;28;20041;-85
2023/06/18 02:50:15;;;;;;;31.77;23.63;;;16.60;99.90;;;;;;4998519;28;20770;-85
2023/06/18 02:52:42;;;;;;;34.40;24.77;;;16.60;99.90;;;;;;4977585;28;20105;-85
2023/06/18 02:55:10;;;;;;;31.25;23.48;;;16.50;99.90;;;;;;4985155;28;20041;-84
2023/06/18 02:57:36;;;;;;;30.02;22.55;;;16.50;99.90;;;;;;4962999;28;20046;-84
2023/06/18 03:00:04;;;;;;;33.40;23.58;;;16.50;99.90;;;;;;4975312;28;20070;-83
2023/06/18 03:02:31;;;;;;;32.95;23.35;;;16.50;99.90;;;;;;4964531;28;20077;-85
2023/06/18 03:04:57;;;;;;;32.90;22.83;;;16.40;99.90;;;;;;4993737;28;20096;-85
2023/06/18 03:07:23;;;;;;;33.25;23.25;;;16.40;99.90;;;;;;4997749;28;20413;-85
2023/06/18 03:09:49;;;;;;;32.00;23.70;;;16.40;99.90;;;;;;4991582;28;20065;-85
2023/06/18 03:12:15;;;;;;;30.00;22.45;;;16.40;99.90;;;;;;4976800;28;20389;-84
2023/06/18 03:14:41;;;;;;;30.58;21.90;;;16.30;99.90;;;;;;4973116;28;20038;-85
2023/06/18 03:17:06;;;;;;;32.85;23.45;;;16.30;99.90;;;;;;4992616;28;20048;-85
2023/06/18 03:19:32;;;;;;;32.40;23.35;;;16.30;99.90;;;;;;4993109;28;20042;-85
2023/06/18 03:21:58;;;;;;;29.58;22.02;;;16.20;99.90;;;;;;4997221;28;20034;-84
2023/06/18 03:24:24;;;;;;;29.27;21.38;;;16.30;99.90;;;;;;4994570;28;20460;-85
2023/06/18 03:26:50;;;;;;;27.65;20.55;;;16.30;99.90;;;;;;4977482;28;20041;-85
2023/06/18 03:29:16;;;;;;;29.15;20.98;;;16.30;99.90;;;;;;5002145;28;20038;-84
2023/06/18 03:31:42;;;;;;;33.42;24.90;;;16.30;99.90;;;;;;4994355;28;20046;-85
2023/06/18 03:34:08;;;;;;;36.00;24.75;;;16.20;99.90;;;;;;4975663;28;20039;-85
2023/06/18 03:36:39;;;;;;;34.40;25.15;;;16.20;99.90;;;;;;4985767;28;20038;-85
2023/06/18 03:39:11;;;;;;;31.42;22.02;;;16.20;99.90;;;;;;4991239;28;20041;-85
2023/06/18 03:41:38;;;;;;;32.85;22.65;;;16.20;99.90;;;;;;5008129;28;20052;-85
2023/06/18 03:44:04;;;;;;;34.85;24.55;;;16.20;99.90;;;;;;4999536;28;20074;-85
2023/06/18 03:46:30;;;;;;;39.10;27.13;;;16.20;99.90;;;;;;4967596;28;20092;-85
2023/06/18 03:48:56;;;;;;;36.33;25.15;;;16.20;99.90;;;;;;5000027;28;20042;-85
2023/06/18 03:51:22;;;;;;;34.63;23.92;;;16.20;99.90;;;;;;4977081;28;20109;-85
2023/06/18 03:53:48;;;;;;;30.63;21.80;;;16.10;99.90;;;;;;4973190;28;20053;-85
2023/06/18 03:56:14;;;;;;;38.47;26.05;;;16.10;99.90;;;;;;4995394;28;20042;-85
2023/06/18 03:58:42;;;;;;;37.47;25.33;;;16.20;99.90;;;;;;4998497;28;20063;-85
2023/06/18 04:01:08;;;;;;;32.70;21.95;;;16.20;99.90;;;;;;4991655;28;20049;-85
2023/06/18 04:03:34;;;;;;;31.33;20.92;;;16.20;99.90;;;;;;4986747;28;20034;-85
2023/06/18 04:06:00;;;;;;;34.08;23.98;;;16.20;99.90;;;;;;5006458;28;20389;-85
2023/06/18 04:08:27;;;;;;;35.40;25.05;;;16.20;99.90;;;;;;4972233;28;20045;-85
2023/06/18 04:10:55;;;;;;;36.03;25.73;;;16.30;99.90;;;;;;4959875;28;20034;-86
2023/06/18 04:13:22;;;;;;;33.08;24.25;;;16.30;99.90;;;;;;4971195;28;20500;-85
2023/06/18 04:15:48;;;;;;;37.13;26.02;;;16.20;99.90;;;;;;4998053;28;20039;-85
2023/06/18 04:18:15;;;;;;;31.75;22.35;;;16.20;99.90;;;;;;4974066;28;20170;-85
2023/06/18 04:20:40;;;;;;;32.08;23.25;;;16.30;99.90;;;;;;4987867;28;20066;-84
2023/06/18 04:23:08;;;;;;;28.92;21.58;;;16.30;99.90;;;;;;4976824;28;20547;-84
2023/06/18 04:25:34;;;;;;;29.25;21.95;;;16.40;99.90;;;;;;4973544;28;20050;-84
2023/06/18 04:28:00;;;;;;;26.65;20.63;;;16.30;99.90;;;;;;4985788;28;20049;-85
2023/06/18 04:30:26;;;;;;;28.30;19.98;;;16.30;99.90;;;;;;4997032;28;20054;-85
2023/06/18 04:32:52;;;;;;;26.08;20.80;;;16.30;99.90;;;;;;4982783;28;20073;-86
2023/06/18 04:35:18;;;;;;;27.58;21.92;;;16.30;99.90;;;;;;4987602;28;20120;-84
2023/06/18 04:37:44;;;;;;;26.13;20.52;;;16.30;99.90;;;;;;4976524;28;20062;-84
2023/06/18 04:40:10;;;;;;;29.35;20.88;;;16.40;99.90;;;;;;4972295;28;20232;-84
2023/06/18 04:42:36;;;;;;;27.15;20.30;;;16.40;99.90;;;;;;4994969;28;20031;-84
2023/06/18 04:45:03;;;;;;;22.52;17.88;;;16.40;99.90;;;;;;4993620;28;20042;-84
2023/06/18 04:47:29;;;;;;;24.15;19.45;;;16.40;99.90;;;;;;4962222;28;20053;-84
2023/06/18 04:49:55;;;;;;;29.35;22.20;;;16.40;99.90;;;;;;4985137;28;20042;-84
2023/06/18 04:52:21;;;;;;;25.67;18.73;;;16.50;99.90;;;;;;4982785;28;20477;-85
2023/06/18 04:54:47;;;;;;;27.40;21.27;;;16.40;99.90;;;;;;4975037;28;20041;-85
2023/06/18 04:57:13;;;;;;;26.20;19.83;;;16.50;99.90;;;;;;4989023;28;20047;-84
2023/06/18 04:59:40;;;;;;;28.13;20.48;;;16.60;99.90;;;;;;4967568;28;20065;-84
2023/06/18 05:02:08;;;;;;;28.85;21.58;;;16.60;99.90;;;;;;4981312;28;20434;-85
2023/06/18 05:04:34;;;;;;;18.70;14.98;;;16.60;99.90;;;;;;5004149;28;20117;-85
2023/06/18 05:07:00;;;;;;;27.70;21.05;;;16.60;99.90;;;;;;4983909;28;20552;-84
2023/06/18 05:09:29;;;;;;;28.52;20.10;;;16.60;99.90;;;;;;4983438;28;20046;-85
2023/06/18 05:11:56;;;;;;;27.13;21.92;;;16.60;99.90;;;;;;4974881;28;20128;-84
2023/06/18 05:14:21;;;;;;;23.20;18.27;;;16.60;99.90;;;;;;5001226;28;20080;-84
2023/06/18 05:16:47;;;;;;;30.70;22.88;;;16.70;99.90;;;;;;5007567;28;20069;-85
2023/06/18 05:19:16;;;;;;;31.15;21.75;;;16.70;99.90;;;;;;5003580;28;20037;-84
2023/06/18 05:21:43;;;;;;;28.63;21.02;;;16.70;99.90;;;;;;5012752;28;20070;-83
2023/06/18 05:24:11;;;;;;;32.75;23.83;;;16.80;99.90;;;;;;4983751;28;20061;-84
2023/06/18 05:26:37;;;;;;;21.15;15.95;;;16.80;99.90;;;;;;5007210;28;20396;-84
2023/06/18 05:29:03;;;;;;;28.90;20.63;;;16.80;99.90;;;;;;4985237;28;20034;-84
2023/06/18 05:31:29;;;;;;;26.95;20.40;;;16.80;99.90;;;;;;4985978;28;20050;-84
2023/06/18 05:33:55;;;;;;;24.88;19.05;;;16.80;99.90;;;;;;4987561;28;20049;-84
2023/06/18 05:36:24;;;;;;;30.38;23.65;;;16.90;99.90;;;;;;4998199;28;20038;-84
2023/06/18 05:38:52;;;;;;;24.52;20.08;;;16.90;99.90;;;;;;5007373;28;20049;-84
2023/06/18 05:41:18;;;;;;;32.70;24.27;;;17.00;99.90;;;;;;4973769;28;20402;-85
2023/06/18 05:43:44;;;;;;;33.38;24.67;;;17.00;99.90;;;;;;5008260;28;20073;-83
2023/06/18 05:46:10;;;;;;;24.77;19.48;;;17.10;99.90;;;;;;4986124;28;20561;-83
2023/06/18 05:48:36;;;;;;;28.23;21.55;;;17.10;99.90;;;;;;5010426;28;20086;-83
2023/06/18 05:51:02;;;;;;;27.23;21.33;;;17.10;99.90;;;;;;4989934;28;20062;-84
2023/06/18 05:53:27;;;;;;;28.67;22.23;;;17.10;99.90;;;;;;4990876;28;20125;-84
2023/06/18 05:55:53;;;;;;;23.80;18.27;;;17.10;99.90;;;;;;5006824;28;20030;-81
2023/06/18 05:58:19;;;;;;;26.65;21.70;;;17.20;99.90;;;;;;4987558;28;20060;-83
2023/06/18 06:00:45;;;;;;;23.98;17.88;;;17.20;99.90;;;;;;4968989;28;20497;-83
2023/06/18 06:03:11;;;;;;;29.25;21.58;;;17.30;99.90;;;;;;4994111;28;20088;-83
2023/06/18 06:05:37;;;;;;;25.55;19.88;;;17.30;99.90;;;;;;4976020;28;20042;-83
2023/06/18 06:08:03;;;;;;;25.95;21.83;;;17.30;99.90;;;;;;4984247;28;20034;-83
2023/06/18 06:10:28;;;;;;;28.70;21.67;;;17.30;99.90;;;;;;5006151;28;20045;-83
2023/06/18 06:12:56;;;;;;;30.45;22.00;;;17.30;99.90;;;;;;5002723;28;20558;-84
2023/06/18 06:15:22;;;;;;;30.90;22.77;;;17.40;99.90;;;;;;5005054;28;20488;-83
2023/06/18 06:17:48;;;;;;;28.13;22.13;;;17.40;99.90;;;;;;5011495;28;20105;-80
2023/06/18 06:20:14;;;;;;;25.75;19.88;;;17.40;99.90;;;;;;5001589;28;20050;-82
2023/06/18 06:22:39;;;;;;;32.63;24.30;;;17.40;99.90;;;;;;5001712;28;20038;-83
2023/06/18 06:25:05;;;;;;;27.70;21.98;;;17.40;99.90;;;;;;5004115;28;20272;-82
2023/06/18 06:27:31;;;;;;;32.97;24.38;;;17.40;99.90;;;;;;5000764;28;20476;-83
2023/06/18 06:29:59;;;;;;;25.67;20.95;;;17.40;99.90;;;;;;4988256;28;20056;-82
2023/06/18 06:32:24;;;;;;;31.33;24.63;;;17.50;99.90;;;;;;4983666;28;20116;-80
2023/06/18 06:34:50;;;;;;;32.17;24.98;;;17.50;99.90;;;;;;4990977;28;20042;-81
2023/06/18 06:37:16;;;;;;;30.85;24.30;;;17.60;99.90;;;;;;5009909;28;20030;-80
2023/06/18 06:39:42;;;;;;;28.77;22.98;;;17.70;99.90;;;;;;5003256;28;20062;-82
2023/06/18 06:42:09;;;;;;;31.55;24.95;;;17.80;99.90;;;;;;4996107;28;20499;-81
2023/06/18 06:44:35;;;;;;;21.33;17.20;;;17.90;99.90;;;;;;4995086;28;20048;-80
2023/06/18 06:47:00;;;;;;;26.25;20.98;;;17.90;99.90;;;;;;5008930;28;20046;-82
2023/06/18 06:49:26;;;;;;;32.10;24.90;;;18.00;99.90;;;;;;4981144;28;20109;-82
2023/06/18 06:51:55;;;;;;;30.50;23.52;;;18.00;99.90;;;;;;4996549;28;20080;-82
2023/06/18 06:54:22;;;;;;;23.52;20.10;;;18.10;99.90;;;;;;5000108;28;20576;-82
2023/06/18 06:56:47;;;;;;;29.80;23.75;;;18.20;99.90;;;;;;4974744;28;20121;-80
2023/06/18 06:59:13;;;;;;;28.95;22.40;;;18.20;99.90;;;;;;5001267;28;20136;-82
2023/06/18 07:01:39;;;;;;;28.58;21.75;;;18.30;99.90;;;;;;4992138;28;20621;-81
2023/06/18 07:04:06;;;;;;;24.58;21.27;;;18.40;99.90;;;;;;4969948;28;20322;-81
2023/06/18 07:06:31;;;;;;;28.42;21.20;;;18.40;99.90;;;;;;4992143;28;20069;-81
2023/06/18 07:08:59;;;;;;;24.83;19.15;;;18.60;99.90;;;;;;4994554;28;20077;-82
2023/06/18 07:11:24;;;;;;;27.55;21.63;;;18.70;99.90;;;;;;4974574;28;20065;-82
2023/06/18 07:13:50;;;;;;;25.83;20.42;;;18.90;99.90;;;;;;5000320;28;20050;-82
2023/06/18 07:16:16;;;;;;;24.92;19.42;;;19.20;99.90;;;;;;4971605;28;20413;-82
2023/06/18 07:18:41;;;;;;;24.42;20.25;;;19.60;99.90;;;;;;4987644;28;20048;-81
2023/06/18 07:21:07;;;;;;;24.15;20.00;;;20.00;99.90;;;;;;4969969;28;20038;-83
2023/06/18 07:23:33;;;;;;;24.30;18.67;;;20.30;99.90;;;;;;4983063;28;20048;-82
2023/06/18 07:25:59;;;;;;;22.58;18.67;;;20.60;99.90;;;;;;4986407;28;20042;-82
2023/06/18 07:28:24;;;;;;;21.30;17.35;;;20.60;99.90;;;;;;4984401;28;20045;-82
2023/06/18 07:30:50;;;;;;;22.77;17.20;;;20.60;99.90;;;;;;4997257;28;20042;-82
2023/06/18 07:33:16;;;;;;;19.90;16.63;;;20.70;99.90;;;;;;4988357;28;20388;-82
2023/06/18 07:35:41;;;;;;;23.83;18.52;;;20.80;99.90;;;;;;4965127;28;20144;-82
2023/06/18 07:38:07;;;;;;;25.52;18.42;;;21.00;99.90;;;;;;4975124;28;20042;-81
2023/06/18 07:40:33;;;;;;;21.10;16.55;;;21.10;99.90;;;;;;5000198;28;20041;-82
2023/06/18 07:43:00;;;;;;;22.60;17.17;;;21.30;99.90;;;;;;4976936;28;20065;-82
2023/06/18 07:45:26;;;;;;;22.98;18.08;;;21.50;99.90;;;;;;5002286;28;20049;-82
2023/06/18 07:47:52;;;;;;;22.23;16.73;;;21.70;99.90;;;;;;4995241;28;20038;-83
2023/06/18 07:50:17;;;;;;;23.63;18.20;;;21.90;99.90;;;;;;4993233;28;20046;-82
2023/06/18 07:52:43;;;;;;;20.77;16.52;;;22.00;99.90;;;;;;4985723;28;20041;-83
2023/06/18 07:55:09;;;;;;;23.70;16.65;;;22.20;99.90;;;;;;4999728;28;20124;-85
2023/06/18 07:57:35;;;;;;;21.15;16.88;;;22.20;99.90;;;;;;4986303;28;20138;-85
2023/06/18 08:00:00;;;;;;;24.45;19.35;;;22.30;99.90;;;;;;5006915;28;20097;-84
2023/06/18 08:02:26;;;;;;;20.67;16.83;;;22.40;99.90;;;;;;4989038;28;20039;-87
2023/06/18 08:04:52;;;;;;;20.33;17.08;;;22.50;99.90;;;;;;4985762;28;20041;-84
2023/06/18 08:07:18;;;;;;;21.65;18.15;;;22.70;99.90;;;;;;4985657;28;20085;-84
2023/06/18 08:09:43;;;;;;;21.83;17.55;;;22.80;99.90;;;;;;5001132;28;20048;-84
2023/06/18 08:12:11;;;;;;;22.35;17.35;;;23.00;99.90;;;;;;5003811;28;20124;-84
2023/06/18 08:14:37;;;;;;;24.25;17.58;;;23.10;99.90;;;;;;4971796;28;20272;-84
2023/06/18 08:17:03;;;;;;;21.77;17.58;;;23.20;99.90;;;;;;4967191;28;20482;-83
2023/06/18 08:19:29;;;;;;;22.92;16.73;;;23.30;99.90;;;;;;4981035;28;20041;-83
2023/06/18 08:21:55;;;;;;;20.15;16.83;;;23.30;99.90;;;;;;4984234;28;20081;-82
2023/06/18 08:24:21;;;;;;;21.55;18.20;;;23.50;99.90;;;;;;4986063;28;20034;-81
2023/06/18 08:26:47;;;;;;;23.90;17.63;;;23.50;99.90;;;;;;4980705;28;20062;-83
2023/06/18 08:29:16;;;;;;;22.73;17.13;;;23.60;99.90;;;;;;4999320;28;20145;-83
2023/06/18 08:31:42;;;;;;;20.20;15.35;;;23.70;99.90;;;;;;4985646;28;20172;-82
2023/06/18 08:34:08;;;;;;;21.65;18.10;;;23.80;99.90;;;;;;5000193;28;20045;-83
2023/06/18 08:36:34;;;;;;;20.42;16.10;;;23.80;99.90;;;;;;4989796;28;20777;-83
2023/06/18 08:39:00;;;;;;;21.80;17.75;;;23.90;99.90;;;;;;4991650;28;20056;-83
2023/06/18 08:41:27;;;;;;;20.73;15.57;;;24.00;99.90;;;;;;4986801;28;20424;-83
2023/06/18 08:43:53;;;;;;;23.02;16.77;;;24.10;99.90;;;;;;4995088;28;20044;-83
2023/06/18 08:46:22;;;;;;;19.70;15.32;;;24.30;99.90;;;;;;4997912;28;20050;-82
2023/06/18 08:49:06;;;;;;;19.40;15.77;;;24.40;99.90;;;;;;5000677;28;20048;-80
2023/06/18 08:51:32;;;;;;;19.63;15.18;;;24.50;99.90;;;;;;4972508;28;20053;-81
2023/06/18 08:53:58;;;;;;;17.45;13.93;;;24.50;99.90;;;;;;5002534;28;20221;-80
2023/06/18 08:56:25;;;;;;;19.30;14.88;;;24.60;99.90;;;;;;4987949;28;20477;-81
2023/06/18 08:58:57;;;;;;;16.20;13.30;;;24.70;99.90;;;;;;5010453;28;20061;-82
2023/06/18 09:01:25;;;;;;;18.23;13.75;;;24.80;99.90;;;;;;4988110;28;20052;-80
2023/06/18 09:03:53;;;;;;;17.50;12.57;;;24.90;99.90;;;;;;5001227;28;21184;-82
2023/06/18 09:06:19;;;;;;;16.05;12.18;;;24.90;99.90;;;;;;4988927;28;20176;-80
2023/06/18 09:08:48;;;;;;;14.85;11.40;;;25.00;99.90;;;;;;4994260;28;20041;-82
2023/06/18 09:11:14;;;;;;;13.15;10.98;;;25.00;99.90;;;;;;4985400;28;20112;-81
2023/06/18 09:13:41;;;;;;;18.15;12.30;;;25.20;99.90;;;;;;4985422;28;20038;-82
2023/06/18 09:16:08;;;;;;;18.35;10.90;;;25.20;99.90;;;;;;4966650;28;20077;-82
2023/06/18 09:18:34;;;;;;;14.32;10.93;;;25.30;99.90;;;;;;4975518;28;20041;-81
2023/06/18 09:21:03;;;;;;;16.45;11.30;;;25.40;99.90;;;;;;4979932;28;20042;-82
2023/06/18 09:23:29;;;;;;;14.10;9.70;;;25.40;99.90;;;;;;4980655;28;20092;-82
2023/06/18 09:25:55;;;;;;;13.23;10.35;;;25.50;99.30;;;;;;4987400;28;20042;-83
2023/06/18 09:28:23;;;;;;;13.80;10.05;;;25.60;99.10;;;;;;5012195;28;20095;-82
2023/06/18 09:30:50;;;;;;;11.07;9.52;;;25.70;98.70;;;;;;5003671;28;20052;-82
2023/06/18 09:33:27;;;;;;;14.98;9.75;;;25.80;98.70;;;;;;4982334;28;20045;-83
2023/06/18 09:36:04;;;;;;;13.93;9.68;;;25.80;98.50;;;;;;4983991;28;20041;-83
2023/06/18 09:38:38;;;;;;;15.30;10.10;;;26.00;98.10;;;;;;4964639;28;20119;-82
2023/06/18 09:41:17;;;;;;;11.65;10.18;;;26.00;98.00;;;;;;4964296;28;20126;-81
2023/06/18 09:43:47;;;;;;;13.30;8.90;;;26.10;97.60;;;;;;4966688;28;20042;-82
2023/06/18 09:46:14;;;;;;;11.05;9.18;;;26.10;97.70;;;;;;4999237;28;20662;-82
2023/06/18 09:48:42;;;;;;;14.65;9.40;;;26.20;97.80;;;;;;4979058;28;20081;-82
2023/06/18 09:51:08;;;;;;;10.75;8.50;;;26.30;97.50;;;;;;4988815;28;20093;-82
2023/06/18 09:53:34;;;;;;;14.30;9.05;;;26.30;97.20;;;;;;4984203;28;21179;-82
2023/06/18 09:56:16;;;;;;;14.65;8.05;;;26.40;96.90;;;;;;4977852;28;20269;-82
2023/06/18 09:58:50;;;;;;;10.43;8.07;;;26.50;96.60;;;;;;4981853;28;20116;-82
2023/06/18 10:01:17;;;;;;;9.65;8.02;;;26.50;96.70;;;;;;5004003;28;20041;-82
2023/06/18 10:03:44;;;;;;;11.70;7.63;;;26.60;96.70;;;;;;4986698;28;20045;-82
2023/06/18 10:06:21;;;;;;;9.05;7.50;;;26.70;96.30;;;;;;4992312;28;20030;-83
2023/06/18 10:08:55;;;;;;;9.30;7.45;;;26.80;95.70;;;;;;4980343;28;20052;-85
2023/06/18 10:11:21;;;;;;;10.35;8.20;;;26.90;95.40;;;;;;4987209;28;20041;-90
2023/06/18 10:13:57;;;;;;;9.77;7.50;;;27.00;95.00;;;;;;4985826;28;20034;-89
2023/06/18 10:16:26;;;;;;;12.63;7.40;;;27.10;94.70;;;;;;4977544;28;20050;-88
2023/06/18 10:19:09;;;;;;;10.55;7.30;;;27.20;94.80;;;;;;4966971;28;20045;-85
2023/06/18 10:21:49;;;;;;;11.40;7.30;;;27.30;93.90;;;;;;4990915;28;20048;-85
2023/06/18 10:24:22;;;;;;;11.07;7.75;;;27.40;93.90;;;;;;4995537;28;20493;-84
2023/06/18 10:26:48;;;;;;;12.43;7.88;;;27.40;93.60;;;;;;4985568;28;20065;-85
2023/06/18 10:29:15;;;;;;;11.20;7.40;;;27.50;94.10;;;;;;4984987;28;20058;-88
2023/06/18 10:31:42;;;;;;;13.20;7.20;;;27.60;93.90;;;;;;4986873;28;20402;-84
2023/06/18 10:34:08;;;;;;;9.50;7.30;;;27.70;93.00;;;;;;4972514;28;20045;-84
2023/06/18 10:36:35;;;;;;;10.15;7.00;;;27.70;93.00;;;;;;5007332;28;20389;-85
2023/06/18 10:39:02;;;;;;;11.05;7.60;;;27.80;93.20;;;;;;4973402;28;20050;-88
2023/06/18 10:41:30;;;;;;;9.35;7.05;;;27.90;93.50;;;;;;4998825;28;20129;-85
2023/06/18 10:43:56;;;;;;;8.60;6.55;;;27.90;93.10;;;;;;4985596;28;20046;-82
2023/06/18 10:46:22;;;;;;;13.77;6.82;;;28.00;93.00;;;;;;4999576;28;20125;-83
2023/06/18 10:49:15;;;;;;;11.15;7.60;;;28.10;93.00;;;;;;4969345;28;20139;-84
2023/06/18 10:51:56;;;;;;;9.30;6.95;;;28.10;92.50;;;;;;4970829;28;20089;-87
2023/06/18 10:54:33;;;;;;;10.02;6.75;;;28.10;92.80;;;;;;5006476;28;20053;-94
2023/06/18 10:57:01;;;;;;;9.77;6.68;;;28.20;91.90;;;;;;4983383;28;20042;-94
2023/06/18 10:59:35;;;;;;;9.82;6.72;;;28.20;92.30;;;;;;4991682;28;20427;-94
2023/06/18 11:02:01;;;;;;;8.77;7.23;;;28.20;92.10;;;;;;5009694;28;20488;-95
2023/06/18 11:15:05;;;;;;;10.02;6.82;;;28.30;91.60;;;;;;1479924;26;20124;-88
2023/06/18 11:17:33;;;;;;;11.07;7.22;;;28.10;90.80;;;;;;4995243;28;20050;-87
2023/06/18 11:20:00;;;;;;;8.40;6.43;;;28.10;91.40;;;;;;4992278;28;20126;-88
2023/06/18 11:22:28;;;;;;;10.90;6.75;;;28.10;91.60;;;;;;4978382;28;20042;-90
2023/06/18 11:24:57;;;;;;;9.38;6.90;;;28.20;91.40;;;;;;4997804;28;20042;-89
2023/06/18 11:27:24;;;;;;;9.43;6.90;;;28.30;91.50;;;;;;4984172;28;20138;-91
2023/06/18 11:29:55;;;;;;;10.52;6.95;;;28.30;91.40;;;;;;4996823;28;20063;-87
2023/06/18 11:32:20;;;;;;;11.00;7.07;;;28.30;90.90;;;;;;4974185;28;20035;-87
2023/06/18 11:34:47;;;;;;;8.25;6.22;;;28.40;91.10;;;;;;4995530;28;20038;-92
2023/06/18 11:37:13;;;;;;;11.88;6.68;;;28.40;91.00;;;;;;4995118;28;20049;-89
2023/06/18 11:39:40;;;;;;;9.60;6.47;;;28.50;91.00;;;;;;4996445;28;20038;-89
2023/06/18 11:42:15;;;;;;;11.77;6.85;;;28.50;90.70;;;;;;4965986;28;20057;-88
2023/06/18 11:44:52;;;;;;;8.98;6.72;;;28.50;91.00;;;;;;4996288;28;20486;-91
2023/06/18 11:47:19;;;;;;;12.00;6.95;;;28.60;90.60;;;;;;4981230;28;20057;-90
2023/06/18 11:49:46;;;;;;;10.35;6.60;;;28.60;90.80;;;;;;5000817;28;20097;-91
2023/06/18 11:52:17;;;;;;;10.10;7.10;;;28.70;90.40;;;;;;5000142;28;20062;-88
2023/06/18 11:54:44;;;;;;;9.07;6.70;;;28.60;89.10;;;;;;4995933;28;20098;-84
2023/06/18 11:57:12;;;;;;;9.45;7.05;;;28.60;89.30;;;;;;4970072;28;20073;-83
2023/06/18 11:59:42;;;;;;;7.93;6.60;;;28.50;89.60;;;;;;4991272;28;20046;-84
2023/06/18 12:02:15;;;;;;;12.10;7.28;;;28.60;90.50;;;;;;4972723;28;20066;-85
2023/06/18 12:04:43;;;;;;;8.15;6.45;;;28.60;90.50;;;;;;4976457;28;20031;-83
2023/06/18 12:07:14;;;;;;;8.93;7.22;;;28.60;90.60;;;;;;4994513;28;20125;-83
2023/06/18 12:09:40;;;;;;;9.90;7.07;;;28.70;90.00;;;;;;4995210;28;20081;-84
2023/06/18 12:12:19;;;;;;;11.73;7.10;;;28.70;90.10;;;;;;4962994;28;20078;-84
2023/06/18 12:15:00;;;;;;;10.60;6.90;;;28.70;89.10;;;;;;4993729;28;20089;-85
2023/06/18 12:17:54;;;;;;;8.98;6.60;;;28.80;87.10;;;;;;4994827;28;20082;-85
2023/06/18 12:20:21;;;;;;;10.38;7.50;;;28.80;86.90;;;;;;4979343;28;20050;-85
2023/06/18 12:22:48;;;;;;;7.43;6.28;;;28.80;87.60;;;;;;4981965;28;20046;-84
2023/06/18 12:25:15;;;;;;;8.43;6.38;;;28.90;88.00;;;;;;4989228;28;20121;-84
2023/06/18 12:27:44;;;;;;;10.38;6.57;;;29.00;88.80;;;;;;4995157;28;20050;-84
2023/06/18 12:30:12;;;;;;;10.35;7.00;;;29.10;88.40;;;;;;4996619;28;20043;-87
2023/06/18 12:32:39;;;;;;;8.77;6.55;;;29.10;86.50;;;;;;4963674;28;20057;-84
2023/06/18 12:35:21;;;;;;;9.20;6.88;;;29.20;85.90;;;;;;4979961;28;20042;-87
2023/06/18 12:37:48;;;;;;;8.68;6.35;;;29.20;85.20;;;;;;4994602;28;20042;-87
2023/06/18 14:52:30;;;;;;;10.48;6.80;;;29.40;82.90;;;;;;5033847;28;20492;-93
2023/06/18 14:54:56;;;;;;;8.25;5.97;;;29.40;84.40;;;;;;4994855;28;20049;-93
2023/06/18 14:57:21;;;;;;;9.07;6.43;;;29.40;84.40;;;;;;5013695;28;20052;-93